Time;durP1;ratioP1;P1;durP2;ratioP2;P2;SDS_P1;SDS_P2;PMS_P1;PMS_P2;Temp;Humidity;BMP_temperature;BMP_pressure;BME280_temperature;BME280_humidity;BME280_pressure;Samples;Min_cycle;Max_cycle;Signal;HPM_P1;HPM_P2
2022/04/20 00:02:24;;;;;;;8.90;8.70;;;22.20;42.20;;;;;;5072889;28;20501;-47
2022/04/20 00:04:53;;;;;;;8.23;8.03;;;22.20;42.10;;;;;;5073612;28;20475;-47
2022/04/20 00:07:20;;;;;;;9.50;9.20;;;22.20;42.20;;;;;;5072676;28;20479;-46
2022/04/20 00:09:47;;;;;;;8.47;8.27;;;22.20;42.20;;;;;;5073225;28;20451;-49
2022/04/20 00:12:14;;;;;;;8.50;8.20;;;22.20;42.20;;;;;;5072829;28;20451;-47
2022/04/20 00:14:41;;;;;;;8.30;8.10;;;22.20;42.20;;;;;;5072334;28;21000;-49
2022/04/20 00:17:08;;;;;;;8.70;8.50;;;22.10;42.10;;;;;;5072604;28;20451;-46
2022/04/20 00:19:36;;;;;;;8.40;8.20;;;22.10;42.20;;;;;;5072781;28;20809;-47
2022/04/20 00:22:02;;;;;;;8.50;8.30;;;22.10;42.20;;;;;;5072600;28;20444;-47
2022/04/20 00:24:29;;;;;;;9.00;8.77;;;22.10;42.10;;;;;;5072241;28;20986;-47
2022/04/20 00:26:56;;;;;;;9.40;9.10;;;22.10;42.20;;;;;;5072282;28;20486;-48
2022/04/20 00:29:23;;;;;;;9.67;9.40;;;22.10;42.20;;;;;;5072348;28;20444;-47
2022/04/20 00:31:49;;;;;;;9.20;9.00;;;22.10;42.30;;;;;;5072454;28;20440;-48
2022/04/20 00:34:16;;;;;;;9.40;9.20;;;22.10;42.30;;;;;;5072349;28;20849;-47
2022/04/20 00:36:44;;;;;;;9.50;9.30;;;22.10;42.30;;;;;;5072268;28;20444;-47
2022/04/20 00:39:11;;;;;;;8.60;8.40;;;22.10;42.30;;;;;;5072118;28;20838;-47
2022/04/20 00:41:38;;;;;;;9.17;8.87;;;22.10;42.30;;;;;;5072258;28;20454;-47
2022/04/20 00:44:06;;;;;;;9.23;9.03;;;22.00;42.30;;;;;;5072249;28;20466;-47
2022/04/20 00:46:33;;;;;;;8.60;8.40;;;22.00;42.20;;;;;;5071897;28;20475;-47
2022/04/20 00:49:00;;;;;;;8.60;8.40;;;22.00;42.30;;;;;;5071453;28;20448;-47
2022/04/20 00:51:27;;;;;;;8.57;8.37;;;22.00;42.30;;;;;;5072222;28;20526;-46
2022/04/20 00:53:59;;;;;;;9.00;8.80;;;22.00;42.30;;;;;;5072072;28;20450;-47
2022/04/20 00:56:25;;;;;;;8.77;8.57;;;22.00;42.30;;;;;;5071808;28;20443;-47
2022/04/20 00:58:53;;;;;;;8.50;8.30;;;21.90;42.20;;;;;;5071809;28;20439;-47
2022/04/20 01:01:20;;;;;;;8.60;8.40;;;21.90;42.30;;;;;;5071983;28;20444;-50
2022/04/20 01:03:47;;;;;;;9.17;8.97;;;21.90;42.30;;;;;;5071676;28;20447;-47
2022/04/20 01:06:14;;;;;;;9.50;9.30;;;21.90;42.30;;;;;;5071635;28;20444;-47
2022/04/20 01:08:41;;;;;;;8.77;8.57;;;21.90;42.30;;;;;;5071528;28;20475;-47
2022/04/20 01:11:09;;;;;;;8.90;8.70;;;21.90;42.40;;;;;;5071554;28;20790;-47
2022/04/20 01:13:36;;;;;;;8.40;8.20;;;21.90;42.40;;;;;;5071697;28;20958;-46
2022/04/20 01:16:03;;;;;;;8.80;8.60;;;21.90;42.40;;;;;;5071582;28;20463;-47
2022/04/20 01:18:30;;;;;;;9.10;8.90;;;21.80;42.30;;;;;;5071364;28;20444;-47
2022/04/20 01:20:59;;;;;;;9.57;9.27;;;21.80;42.40;;;;;;5071779;28;20439;-47
2022/04/20 01:23:26;;;;;;;8.70;8.50;;;21.80;42.40;;;;;;5071723;28;20826;-47
2022/04/20 01:25:53;;;;;;;9.43;9.23;;;21.80;42.40;;;;;;5071354;28;20550;-47
2022/04/20 01:28:20;;;;;;;9.10;8.90;;;21.80;42.40;;;;;;5071267;28;20476;-46
2022/04/20 01:30:47;;;;;;;8.90;8.70;;;21.80;42.40;;;;;;5071682;28;20783;-48
2022/04/20 01:33:13;;;;;;;9.20;9.00;;;21.80;42.50;;;;;;5070902;28;20451;-46
2022/04/20 01:35:40;;;;;;;9.17;8.97;;;21.70;42.50;;;;;;5071319;28;20490;-46
2022/04/20 01:38:08;;;;;;;9.47;9.27;;;21.70;42.50;;;;;;5071235;28;20436;-47
2022/04/20 01:40:35;;;;;;;9.90;9.60;;;21.70;42.60;;;;;;5071753;28;20446;-46
2022/04/20 01:43:02;;;;;;;9.67;9.40;;;21.70;42.60;;;;;;5071475;28;20947;-47
2022/04/20 01:45:28;;;;;;;9.60;9.40;;;21.70;42.60;;;;;;5071296;28;20467;-45
2022/04/20 01:47:55;;;;;;;9.63;9.43;;;21.70;42.60;;;;;;5071101;28;20479;-46
2022/04/20 01:50:22;;;;;;;9.13;8.90;;;21.70;42.60;;;;;;5071146;28;20811;-47
2022/04/20 01:52:49;;;;;;;9.60;9.40;;;21.60;42.60;;;;;;5071315;28;20443;-46
2022/04/20 01:55:17;;;;;;;10.03;9.73;;;21.60;43.10;;;;;;5071139;28;20467;-47
2022/04/20 01:57:45;;;;;;;9.40;9.20;;;21.60;42.60;;;;;;5071187;28;20443;-47
2022/04/20 02:00:12;;;;;;;8.87;8.67;;;21.60;42.60;;;;;;5074150;28;20803;-47
2022/04/20 02:02:39;;;;;;;9.43;9.23;;;21.60;42.60;;;;;;5075304;28;20443;-47
2022/04/20 02:05:07;;;;;;;10.10;9.80;;;21.60;42.70;;;;;;5074979;28;20553;-47
2022/04/20 02:07:34;;;;;;;9.30;9.10;;;21.60;42.60;;;;;;5075022;28;21037;-46
2022/04/20 02:10:02;;;;;;;9.27;9.07;;;21.60;42.70;;;;;;5075428;28;20441;-47
2022/04/20 02:12:30;;;;;;;9.57;9.37;;;21.60;42.70;;;;;;5075147;28;20443;-47
2022/04/20 02:14:57;;;;;;;9.70;9.50;;;21.60;42.80;;;;;;5075258;28;20685;-47
2022/04/20 02:17:24;;;;;;;10.00;9.80;;;21.50;42.70;;;;;;5074724;28;20449;-47
2022/04/20 02:19:51;;;;;;;9.80;9.60;;;21.50;42.70;;;;;;5075036;28;20453;-46
2022/04/20 02:22:17;;;;;;;9.50;9.30;;;21.50;42.70;;;;;;5075065;28;20450;-45
2022/04/20 02:24:44;;;;;;;9.17;8.97;;;21.50;42.70;;;;;;5074908;28;20486;-45
2022/04/20 02:27:11;;;;;;;10.00;9.70;;;21.50;42.70;;;;;;5074314;28;20834;-46
2022/04/20 02:29:40;;;;;;;9.33;8.97;;;21.50;42.80;;;;;;5074815;28;20469;-47
2022/04/20 02:32:08;;;;;;;9.00;8.80;;;21.50;42.80;;;;;;5074873;28;20447;-46
2022/04/20 02:34:35;;;;;;;8.90;8.70;;;21.50;42.80;;;;;;5074681;28;20529;-45
2022/04/20 02:37:02;;;;;;;9.47;9.27;;;21.40;42.70;;;;;;5074203;28;20439;-48
2022/04/20 02:39:28;;;;;;;9.70;9.50;;;21.40;42.80;;;;;;5074596;28;20451;-47
2022/04/20 02:41:55;;;;;;;8.80;8.60;;;21.40;42.80;;;;;;5074627;28;20903;-47
2022/04/20 02:44:22;;;;;;;9.43;9.23;;;21.40;42.80;;;;;;5074329;28;20468;-46
2022/04/20 02:46:50;;;;;;;9.07;8.87;;;21.40;42.80;;;;;;5074185;28;20475;-46
2022/04/20 02:49:17;;;;;;;9.47;9.27;;;21.40;42.80;;;;;;5074790;28;20455;-47
2022/04/20 02:51:44;;;;;;;9.30;9.10;;;21.40;42.90;;;;;;5074511;28;20443;-46
2022/04/20 02:54:11;;;;;;;9.10;8.90;;;21.30;42.90;;;;;;5074043;28;20838;-48
2022/04/20 02:56:37;;;;;;;8.90;8.70;;;21.30;42.80;;;;;;5074278;28;20446;-47
2022/04/20 02:59:05;;;;;;;9.37;9.17;;;21.30;42.90;;;;;;5074512;28;20447;-46
2022/04/20 03:01:31;;;;;;;9.53;9.33;;;21.30;42.90;;;;;;5074196;28;20458;-47
2022/04/20 03:04:00;;;;;;;9.67;9.47;;;21.30;42.90;;;;;;5073804;28;20455;-46
2022/04/20 03:06:27;;;;;;;9.30;9.10;;;21.30;42.90;;;;;;5074007;28;20450;-48
2022/04/20 03:08:54;;;;;;;10.07;9.80;;;21.30;42.90;;;;;;5073989;28;20536;-47
2022/04/20 03:11:21;;;;;;;9.27;9.07;;;21.30;42.90;;;;;;5072934;28;20459;-46
2022/04/20 03:13:49;;;;;;;10.50;10.20;;;21.30;42.90;;;;;;5073705;28;20451;-46
2022/04/20 03:16:16;;;;;;;9.77;9.57;;;21.30;43.50;;;;;;5073684;28;20439;-46
2022/04/20 03:18:43;;;;;;;9.37;9.17;;;21.30;43.00;;;;;;5074245;28;20447;-45
2022/04/20 03:21:11;;;;;;;10.43;10.13;;;21.30;43.00;;;;;;5073978;28;20810;-46
2022/04/20 03:23:38;;;;;;;9.60;9.40;;;21.30;43.00;;;;;;5073592;28;20479;-47
2022/04/20 03:26:06;;;;;;;9.43;9.23;;;21.20;43.00;;;;;;5073632;28;20824;-48
2022/04/20 03:28:33;;;;;;;9.30;9.10;;;21.20;43.00;;;;;;5073561;28;20506;-47
2022/04/20 03:31:00;;;;;;;9.77;9.50;;;21.20;43.10;;;;;;5073754;28;20455;-48
2022/04/20 03:33:27;;;;;;;10.00;9.70;;;21.20;43.00;;;;;;5073399;28;20466;-47
2022/04/20 03:35:54;;;;;;;9.10;8.90;;;21.20;43.00;;;;;;5073649;28;20473;-47
2022/04/20 03:38:22;;;;;;;9.47;9.27;;;21.20;43.10;;;;;;5073665;28;20440;-47
2022/04/20 03:40:49;;;;;;;9.00;8.80;;;21.20;43.10;;;;;;5073520;28;20497;-46
2022/04/20 03:43:16;;;;;;;9.33;9.13;;;21.10;43.00;;;;;;5073489;28;20444;-47
2022/04/20 03:45:43;;;;;;;9.10;8.90;;;21.20;43.10;;;;;;5073089;28;20638;-46
2022/04/20 03:48:10;;;;;;;8.93;8.73;;;21.10;43.10;;;;;;5073292;28;20486;-47
2022/04/20 03:50:36;;;;;;;8.90;8.70;;;21.10;43.10;;;;;;5073363;28;20440;-46
2022/04/20 03:53:04;;;;;;;9.00;8.80;;;21.10;43.60;;;;;;5073325;28;20832;-46
2022/04/20 03:55:32;;;;;;;9.23;9.03;;;21.10;43.10;;;;;;5072756;28;20472;-49
2022/04/20 03:57:59;;;;;;;8.70;8.50;;;21.10;43.10;;;;;;5073100;28;20862;-45
2022/04/20 04:00:26;;;;;;;9.57;9.37;;;21.10;43.10;;;;;;5073162;28;20451;-48
2022/04/20 04:02:53;;;;;;;9.53;9.33;;;21.10;43.10;;;;;;5073134;28;20452;-47
2022/04/20 04:05:20;;;;;;;10.20;9.90;;;21.10;43.10;;;;;;5072531;28;20478;-47
2022/04/20 04:07:47;;;;;;;10.60;10.10;;;21.10;43.20;;;;;;5072814;28;20483;-47
2022/04/20 04:10:13;;;;;;;9.90;9.60;;;21.10;43.20;;;;;;5072974;28;20525;-46
2022/04/20 04:12:42;;;;;;;10.10;9.90;;;21.10;43.20;;;;;;5072852;28;20448;-47
2022/04/20 04:15:09;;;;;;;9.57;9.27;;;21.00;43.10;;;;;;5072605;28;20467;-46
2022/04/20 04:17:36;;;;;;;9.30;9.10;;;21.00;43.20;;;;;;5072581;28;20462;-46
2022/04/20 04:20:04;;;;;;;10.60;10.10;;;21.00;43.20;;;;;;5072628;28;20448;-47
2022/04/20 04:22:31;;;;;;;9.97;9.77;;;21.00;43.30;;;;;;5072357;28;20444;-47
2022/04/20 04:24:57;;;;;;;9.97;9.70;;;21.00;43.40;;;;;;5072298;28;20469;-50
2022/04/20 04:27:24;;;;;;;10.70;10.27;;;21.00;43.40;;;;;;5072319;28;20511;-47
2022/04/20 04:29:52;;;;;;;10.30;10.00;;;21.00;43.50;;;;;;5072534;28;20813;-47
2022/04/20 04:32:19;;;;;;;10.67;10.37;;;21.00;43.60;;;;;;5072735;28;20443;-46
2022/04/20 04:34:46;;;;;;;10.27;9.97;;;21.00;43.70;;;;;;5072102;28;20471;-46
2022/04/20 04:37:14;;;;;;;11.20;10.47;;;21.00;44.00;;;;;;5072508;28;20534;-48
2022/04/20 04:39:41;;;;;;;10.87;10.57;;;21.00;44.70;;;;;;5072580;28;20453;-48
2022/04/20 04:42:09;;;;;;;12.00;11.10;;;21.00;44.90;;;;;;5071381;28;20444;-48
2022/04/20 04:44:35;;;;;;;12.00;11.20;;;21.10;45.20;;;;;;5072108;28;20463;-50
2022/04/20 04:49:48;;;;;;;15.67;14.70;;;21.00;46.40;;;;;;5072378;28;20419;-48
2022/04/20 04:52:15;;;;;;;15.33;13.07;;;21.00;46.60;;;;;;5071617;28;20937;-49
2022/04/20 04:54:42;;;;;;;12.13;11.33;;;21.00;46.50;;;;;;5072018;28;20555;-49
2022/04/20 04:57:10;;;;;;;12.17;11.47;;;21.00;46.40;;;;;;5071882;28;20641;-49
2022/04/20 04:59:37;;;;;;;12.70;11.90;;;21.00;46.40;;;;;;5072102;28;20447;-49
2022/04/20 05:02:06;;;;;;;12.67;12.03;;;21.00;46.30;;;;;;5072030;28;20496;-49
2022/04/20 05:04:34;;;;;;;14.00;13.10;;;21.00;46.20;;;;;;5071737;28;20472;-48
2022/04/20 05:07:01;;;;;;;13.33;12.43;;;21.00;46.20;;;;;;5071743;28;20443;-49
2022/04/20 05:09:28;;;;;;;14.23;13.30;;;21.00;46.10;;;;;;5071823;28;20487;-51
2022/04/20 05:11:55;;;;;;;13.87;12.93;;;21.00;46.10;;;;;;5071934;28;20458;-48
2022/04/20 05:14:22;;;;;;;12.27;11.80;;;21.00;46.00;;;;;;5071678;28;20970;-49
2022/04/20 05:16:49;;;;;;;11.97;11.57;;;21.00;45.90;;;;;;5071598;28;20477;-49
2022/04/20 05:19:17;;;;;;;12.50;11.70;;;21.00;45.80;;;;;;5071591;28;20451;-49
2022/04/20 05:21:44;;;;;;;12.93;12.10;;;21.00;45.80;;;;;;5071628;28;20443;-49
2022/04/20 05:24:11;;;;;;;12.17;11.47;;;21.00;45.80;;;;;;5071538;28;20467;-48
2022/04/20 05:26:39;;;;;;;11.90;11.40;;;21.00;45.80;;;;;;5071366;28;20618;-48
2022/04/20 05:29:06;;;;;;;11.83;11.43;;;21.00;45.70;;;;;;5071564;28;20483;-50
2022/04/20 05:31:33;;;;;;;13.67;12.53;;;21.00;45.70;;;;;;5071570;28;20443;-49
2022/04/20 05:34:00;;;;;;;12.77;12.07;;;21.00;45.80;;;;;;5070797;28;20439;-48
2022/04/20 05:41:39;;;;;;;11.97;11.57;;;21.00;45.60;;;;;;5071424;28;20470;-49
2022/04/20 05:42:00;;;;;;;13.47;12.60;;;21.00;45.60;;;;;;5071385;28;20422;-48
2022/04/20 05:44:26;;;;;;;12.47;12.07;;;21.00;45.50;;;;;;5071372;28;20467;-49
2022/04/20 05:46:53;;;;;;;12.60;11.90;;;21.00;46.00;;;;;;5071092;28;20450;-49
2022/04/20 05:49:20;;;;;;;12.80;11.97;;;20.90;45.40;;;;;;5071154;28;20490;-48
2022/04/20 05:51:48;;;;;;;12.80;12.30;;;20.90;45.40;;;;;;5071287;28;20451;-48
2022/04/20 05:54:15;;;;;;;12.90;12.30;;;20.90;45.30;;;;;;5071091;28;20467;-49
2022/04/20 05:56:42;;;;;;;11.50;11.20;;;21.00;45.40;;;;;;5071052;28;20444;-48
2022/04/20 05:59:08;;;;;;;12.17;11.60;;;20.90;45.30;;;;;;5071334;28;20444;-48
2022/04/20 06:01:35;;;;;;;12.03;11.53;;;20.90;45.30;;;;;;5071467;28;20862;-48
2022/04/20 06:04:02;;;;;;;12.20;11.77;;;20.90;45.20;;;;;;5070967;28;20463;-48
2022/04/20 06:06:29;;;;;;;11.47;10.97;;;20.90;45.20;;;;;;5071755;28;20447;-51
2022/04/20 06:08:57;;;;;;;11.37;10.90;;;20.90;45.20;;;;;;5071456;28;20528;-49
2022/04/20 06:11:24;;;;;;;11.93;11.33;;;20.90;45.30;;;;;;5071669;28;20448;-47
2022/04/20 06:13:51;;;;;;;10.10;9.80;;;20.90;45.20;;;;;;5071476;28;20542;-47
2022/04/20 06:16:17;;;;;;;10.17;9.87;;;20.90;45.00;;;;;;5071217;28;20466;-51
2022/04/20 06:18:44;;;;;;;11.53;10.93;;;20.90;45.00;;;;;;5071602;28;20436;-47
2022/04/20 06:21:11;;;;;;;12.50;11.90;;;20.90;45.00;;;;;;5071686;28;20447;-49
2022/04/20 06:23:37;;;;;;;11.30;10.77;;;20.90;45.60;;;;;;5071779;28;20443;-49
2022/04/20 06:26:06;;;;;;;12.00;11.43;;;20.90;45.00;;;;;;5071365;28;20467;-50
2022/04/20 06:28:32;;;;;;;12.20;11.50;;;20.90;45.00;;;;;;5071549;28;20491;-49
2022/04/20 06:30:59;;;;;;;10.80;10.40;;;20.90;45.10;;;;;;5071540;28;20447;-50
2022/04/20 06:33:26;;;;;;;10.73;10.33;;;20.90;45.10;;;;;;5071234;28;20446;-50
2022/04/20 06:35:53;;;;;;;11.00;10.50;;;20.90;45.00;;;;;;5071198;28;20815;-48
2022/04/20 06:38:20;;;;;;;11.60;11.00;;;20.90;45.00;;;;;;5071514;28;20443;-49
2022/04/20 06:40:47;;;;;;;11.10;10.67;;;20.90;45.00;;;;;;5071366;28;20447;-51
2022/04/20 06:43:15;;;;;;;11.07;10.47;;;20.90;44.90;;;;;;5071225;28;20447;-48
2022/04/20 06:45:44;;;;;;;11.93;11.33;;;20.90;44.90;;;;;;5073112;28;20467;-50
2022/04/20 06:48:11;;;;;;;10.67;10.27;;;20.90;44.90;;;;;;5074657;28;20482;-49
2022/04/20 06:50:40;;;;;;;10.70;10.20;;;20.90;44.90;;;;;;5074882;28;20819;-48
2022/04/20 06:58:38;;;;;;;11.10;10.60;;;20.90;44.80;;;;;;5074949;28;20419;-50
2022/04/20 07:01:07;;;;;;;10.70;10.30;;;20.90;44.80;;;;;;5074692;28;20451;-48
2022/04/20 07:03:34;;;;;;;11.07;10.47;;;20.90;44.70;;;;;;5074631;28;20808;-48
2022/04/20 07:06:02;;;;;;;11.00;10.60;;;20.90;44.70;;;;;;5074167;28;20478;-48
2022/04/20 07:08:29;;;;;;;10.70;10.30;;;20.90;44.70;;;;;;5074535;28;20871;-49
2022/04/20 07:10:56;;;;;;;10.90;10.60;;;20.90;44.80;;;;;;5074300;28;20451;-47
2022/04/20 07:13:23;;;;;;;10.63;10.30;;;20.90;44.70;;;;;;5075489;28;20458;-48
2022/04/20 07:15:51;;;;;;;11.10;10.70;;;20.90;44.70;;;;;;5074081;28;20467;-48
2022/04/20 07:18:18;;;;;;;11.50;11.10;;;20.90;44.60;;;;;;5074330;28;20447;-48
2022/04/20 07:20:45;;;;;;;10.23;9.93;;;20.90;44.70;;;;;;5074395;28;20444;-48
2022/04/20 07:23:12;;;;;;;10.80;10.50;;;20.90;44.70;;;;;;5074420;28;20439;-47
2022/04/20 07:25:39;;;;;;;13.07;12.57;;;20.90;44.80;;;;;;5074359;28;20491;-50
2022/04/20 07:28:06;;;;;;;12.10;11.63;;;20.90;44.60;;;;;;5074385;28;20466;-48
2022/04/20 07:30:33;;;;;;;11.67;11.17;;;20.90;44.60;;;;;;5074413;28;20439;-49
2022/04/20 07:33:02;;;;;;;10.77;10.47;;;20.90;44.60;;;;;;5074522;28;20451;-47
2022/04/20 07:35:29;;;;;;;11.63;11.13;;;20.90;44.60;;;;;;5074440;28;20986;-48
2022/04/20 07:37:56;;;;;;;10.93;10.53;;;20.90;44.60;;;;;;5074311;28;20446;-48
2022/04/20 07:40:23;;;;;;;9.90;9.50;;;20.90;44.60;;;;;;5074183;28;20935;-47
2022/04/20 07:42:54;;;;;;;10.80;10.40;;;20.90;44.60;;;;;;5074197;28;20455;-48
2022/04/20 07:45:21;;;;;;;10.60;10.10;;;20.90;44.60;;;;;;5074143;28;20877;-47
2022/04/20 07:47:47;;;;;;;11.33;10.93;;;20.90;44.50;;;;;;5074027;28;20452;-51
2022/04/20 07:50:23;;;;;;;10.60;10.30;;;20.90;44.60;;;;;;5074237;28;20870;-48
2022/04/20 07:52:52;;;;;;;11.13;10.77;;;20.90;44.60;;;;;;5074365;28;20447;-49
2022/04/20 07:55:21;;;;;;;10.30;10.00;;;20.90;44.50;;;;;;5073725;28;20464;-47
2022/04/20 07:57:49;;;;;;;10.53;10.23;;;20.90;44.50;;;;;;5073214;28;20508;-49
2022/04/20 08:00:17;;;;;;;11.57;11.17;;;20.90;44.40;;;;;;5073831;28;20448;-48
2022/04/20 08:02:44;;;;;;;10.33;10.03;;;20.90;44.30;;;;;;5073822;28;20677;-48
2022/04/20 08:05:12;;;;;;;10.33;10.03;;;20.90;44.30;;;;;;5073388;28;20494;-48
2022/04/20 08:07:40;;;;;;;10.87;10.57;;;20.90;44.30;;;;;;5073345;28;20448;-48
2022/04/20 08:10:09;;;;;;;10.40;10.10;;;20.90;44.30;;;;;;5073554;28;20491;-47
2022/04/20 08:12:39;;;;;;;11.20;10.90;;;20.90;44.30;;;;;;5073781;28;20447;-47
2022/04/20 08:15:07;;;;;;;11.47;11.07;;;20.90;44.30;;;;;;5073139;28;20831;-49
2022/04/20 08:17:34;;;;;;;10.53;10.13;;;20.90;44.20;;;;;;5073193;28;20443;-48
2022/04/20 08:20:01;;;;;;;10.57;10.27;;;21.00;44.30;;;;;;5073776;28;20445;-48
2022/04/20 08:22:28;;;;;;;10.57;10.27;;;20.90;44.20;;;;;;5073532;28;20436;-47
2022/04/20 08:24:56;;;;;;;10.80;10.40;;;20.90;44.30;;;;;;5073415;28;20482;-48
2022/04/20 08:27:23;;;;;;;10.70;10.40;;;20.90;44.20;;;;;;5073051;28;20442;-48
2022/04/20 08:29:51;;;;;;;10.60;10.30;;;21.00;44.20;;;;;;5073138;28;20532;-51
2022/04/20 08:32:18;;;;;;;10.87;10.57;;;21.00;44.20;;;;;;5073156;28;20953;-48
2022/04/20 08:34:45;;;;;;;10.90;10.50;;;21.00;44.10;;;;;;5073062;28;20522;-48
2022/04/20 08:37:12;;;;;;;10.17;9.87;;;21.00;44.00;;;;;;5072889;28;20455;-49
2022/04/20 08:39:39;;;;;;;10.60;10.30;;;21.00;44.00;;;;;;5073064;28;20459;-48
2022/04/20 08:42:11;;;;;;;10.93;10.53;;;21.00;44.00;;;;;;5073036;28;20479;-47
2022/04/20 08:44:43;;;;;;;10.40;10.10;;;21.00;44.10;;;;;;5072820;28;20499;-47
2022/04/20 08:47:15;;;;;;;10.70;10.40;;;21.00;44.10;;;;;;5072933;28;20935;-48
2022/04/20 08:49:43;;;;;;;10.30;10.00;;;21.00;44.20;;;;;;5072876;28;20483;-48
2022/04/20 08:54:56;;;;;;;11.10;10.80;;;21.00;44.00;;;;;;5072723;28;20857;-48
2022/04/20 08:57:25;;;;;;;10.97;10.67;;;21.00;44.10;;;;;;5072292;28;20440;-47
2022/04/20 08:59:54;;;;;;;11.07;10.70;;;21.00;44.00;;;;;;5072651;28;20799;-49
2022/04/20 09:02:24;;;;;;;11.20;10.90;;;21.00;44.00;;;;;;5072607;28;20530;-48
2022/04/20 09:04:52;;;;;;;11.53;11.13;;;21.00;43.90;;;;;;5072447;28;20479;-47
2022/04/20 09:07:19;;;;;;;10.23;9.93;;;21.00;43.90;;;;;;5072413;28;20444;-47
2022/04/20 09:09:46;;;;;;;11.00;10.50;;;21.00;43.90;;;;;;5071535;28;20485;-48
2022/04/20 09:12:16;;;;;;;10.47;10.17;;;21.00;43.90;;;;;;5072649;28;20450;-48
2022/04/20 09:14:48;;;;;;;10.30;10.10;;;21.00;43.80;;;;;;5072383;28;20524;-48
2022/04/20 09:17:17;;;;;;;10.30;10.00;;;21.00;44.00;;;;;;5072124;28;20547;-47
2022/04/20 09:19:45;;;;;;;10.27;9.97;;;21.00;43.90;;;;;;5072258;28;20447;-48
2022/04/20 09:22:18;;;;;;;11.33;10.97;;;21.00;43.80;;;;;;5072226;28;20439;-48
2022/04/20 09:25:08;;;;;;;10.53;10.23;;;21.00;43.90;;;;;;5072912;28;20467;-48
2022/04/20 09:27:36;;;;;;;10.80;10.50;;;21.00;43.80;;;;;;5072964;28;20443;-49
2022/04/20 09:30:10;;;;;;;9.80;9.60;;;21.00;43.70;;;;;;5072550;28;21009;-48
2022/04/20 09:32:38;;;;;;;10.20;10.00;;;21.00;43.70;;;;;;5072910;28;20454;-48
2022/04/20 09:35:07;;;;;;;10.03;9.80;;;21.00;43.70;;;;;;5072685;28;20598;-53
2022/04/20 09:37:35;;;;;;;9.73;9.53;;;21.00;43.70;;;;;;5072169;28;20813;-47
2022/04/20 09:40:04;;;;;;;9.40;9.10;;;21.00;43.60;;;;;;5072063;28;20439;-49
2022/04/20 09:42:31;;;;;;;10.60;10.30;;;21.00;43.60;;;;;;5071984;28;20444;-49
2022/04/20 09:45:00;;;;;;;10.73;10.37;;;21.00;43.50;;;;;;5071787;28;20824;-48
2022/04/20 09:50:20;;;;;;;10.93;10.63;;;21.10;43.60;;;;;;5072040;28;20474;-49
2022/04/20 09:52:48;;;;;;;10.27;9.97;;;21.10;43.50;;;;;;5072153;28;20814;-48
2022/04/20 09:55:18;;;;;;;10.90;10.60;;;21.10;43.40;;;;;;5071784;28;20508;-48
2022/04/20 09:57:45;;;;;;;9.73;9.43;;;21.10;43.50;;;;;;5071922;28;20443;-48
2022/04/20 10:00:14;;;;;;;10.47;10.07;;;21.10;43.40;;;;;;5072116;28;20970;-48
2022/04/20 10:02:47;;;;;;;9.47;9.27;;;21.10;43.40;;;;;;5071865;28;20539;-50
2022/04/20 10:05:14;;;;;;;10.57;10.27;;;21.10;43.40;;;;;;5071651;28;20467;-48
2022/04/20 10:07:41;;;;;;;10.70;10.40;;;21.10;43.20;;;;;;5071935;28;20444;-48
2022/04/20 10:10:09;;;;;;;10.70;10.40;;;21.10;43.20;;;;;;5071833;28;21001;-51
2022/04/20 10:12:38;;;;;;;10.20;10.00;;;21.10;43.20;;;;;;5071964;28;20478;-50
2022/04/20 10:17:56;;;;;;;10.13;9.93;;;21.10;43.10;;;;;;5071556;28;20827;-51
2022/04/20 10:20:25;;;;;;;10.40;10.20;;;21.20;43.10;;;;;;5073604;28;20923;-49
2022/04/20 10:22:53;;;;;;;10.50;10.20;;;21.20;43.00;;;;;;5076302;28;20542;-48
2022/04/20 10:25:20;;;;;;;9.90;9.60;;;21.20;43.00;;;;;;5075770;28;20475;-50
2022/04/20 10:28:14;;;;;;;10.50;10.20;;;21.20;42.90;;;;;;5075509;28;20457;-48
2022/04/20 10:31:02;;;;;;;9.60;9.30;;;21.20;42.80;;;;;;5075864;28;20483;-50
2022/04/20 10:33:31;;;;;;;11.27;10.77;;;21.20;42.80;;;;;;5075678;28;20485;-52
2022/04/20 10:36:00;;;;;;;10.07;9.87;;;21.20;42.70;;;;;;5075629;28;20467;-48
2022/04/20 10:38:29;;;;;;;9.93;9.63;;;21.20;42.70;;;;;;5076054;28;20475;-51
2022/04/20 10:41:03;;;;;;;10.37;10.03;;;21.20;42.60;;;;;;5076068;28;20447;-49
2022/04/20 10:43:31;;;;;;;10.30;10.00;;;21.20;42.60;;;;;;5075961;28;20493;-50
2022/04/20 10:46:14;;;;;;;11.10;10.80;;;21.30;42.60;;;;;;5075632;28;20471;-50
2022/04/20 10:49:16;;;;;;;10.10;9.80;;;21.30;42.60;;;;;;5075988;28;20443;-48
2022/04/20 10:51:43;;;;;;;10.00;9.77;;;21.30;42.50;;;;;;5075467;28;20431;-48
2022/04/20 10:54:30;;;;;;;10.70;10.40;;;21.30;42.40;;;;;;5075585;28;20463;-48
2022/04/20 10:57:13;;;;;;;9.90;9.70;;;21.30;42.50;;;;;;5075750;28;20473;-47
2022/04/20 10:59:41;;;;;;;9.90;9.70;;;21.30;42.40;;;;;;5076063;28;20914;-48
2022/04/20 11:02:17;;;;;;;9.70;9.50;;;21.30;42.40;;;;;;5075571;28;20866;-48
2022/04/20 11:04:46;;;;;;;10.30;10.00;;;21.30;42.30;;;;;;5075068;28;20474;-48
2022/04/20 11:07:26;;;;;;;10.23;9.93;;;21.30;42.20;;;;;;5075008;28;20439;-48
2022/04/20 11:10:10;;;;;;;10.30;10.00;;;21.30;42.10;;;;;;5074993;28;21051;-50
2022/04/20 11:18:42;;;;;;;10.50;10.30;;;21.40;42.10;;;;;;5075130;28;20553;-48
2022/04/20 11:21:19;;;;;;;10.57;10.30;;;21.40;42.00;;;;;;5075026;28;20845;-52
2022/04/20 11:23:58;;;;;;;10.17;9.87;;;21.40;42.00;;;;;;5075006;28;20497;-48
2022/04/20 11:26:28;;;;;;;9.90;9.60;;;21.40;41.80;;;;;;5075131;28;20455;-50
2022/04/20 11:28:56;;;;;;;10.93;10.63;;;21.40;41.70;;;;;;5075407;28;20466;-48
2022/04/20 11:31:23;;;;;;;10.60;10.30;;;21.40;41.70;;;;;;5073950;28;20485;-48
2022/04/20 11:33:53;;;;;;;9.93;9.70;;;21.50;41.60;;;;;;5075101;28;20938;-48
2022/04/20 11:36:21;;;;;;;10.40;10.10;;;21.50;41.60;;;;;;5074724;28;20517;-50
2022/04/20 11:38:50;;;;;;;9.97;9.67;;;21.50;41.50;;;;;;5075161;28;20931;-47
2022/04/20 11:41:19;;;;;;;10.60;10.30;;;21.50;41.50;;;;;;5074623;28;20443;-47
2022/04/20 11:43:47;;;;;;;10.00;9.80;;;21.60;41.50;;;;;;5074624;28;20447;-49
2022/04/20 11:46:14;;;;;;;10.23;10.03;;;21.60;41.40;;;;;;5074394;28;20529;-49
2022/04/20 11:48:50;;;;;;;10.60;10.30;;;21.60;41.20;;;;;;5074854;28;20447;-47
2022/04/20 11:51:23;;;;;;;11.03;10.73;;;21.60;41.10;;;;;;5074832;28;20479;-47
2022/04/20 11:53:50;;;;;;;11.00;10.60;;;21.60;41.00;;;;;;5074561;28;20527;-48
2022/04/20 11:56:17;;;;;;;10.00;9.80;;;21.70;41.00;;;;;;5074620;28;20800;-47
2022/04/20 11:58:50;;;;;;;9.87;9.67;;;21.70;40.90;;;;;;5075076;28;20455;-48
2022/04/20 12:01:17;;;;;;;10.63;10.33;;;21.70;40.80;;;;;;5075122;28;20772;-48
2022/04/20 12:03:50;;;;;;;10.50;10.20;;;21.70;40.70;;;;;;5074501;28;21024;-52
2022/04/20 12:06:17;;;;;;;10.20;9.90;;;21.80;40.70;;;;;;5073843;28;20436;-55
2022/04/20 12:08:47;;;;;;;10.70;10.40;;;21.90;40.60;;;;;;5072993;28;20818;-52
2022/04/20 12:11:15;;;;;;;10.40;10.10;;;22.00;40.50;;;;;;5072919;28;21040;-52
2022/04/20 12:13:42;;;;;;;10.00;9.70;;;22.10;40.30;;;;;;5073014;28;20458;-50
2022/04/20 12:16:10;;;;;;;10.80;10.30;;;22.20;40.30;;;;;;5072539;28;21001;-51
2022/04/20 12:18:40;;;;;;;9.87;9.67;;;22.30;40.20;;;;;;5072834;28;20450;-53
2022/04/20 12:21:43;;;;;;;9.93;9.33;;;22.40;40.20;;;;;;5072855;28;20444;-48
2022/04/20 12:24:19;;;;;;;10.30;10.00;;;22.40;40.00;;;;;;5072548;28;20946;-54
2022/04/20 12:26:47;;;;;;;10.37;10.03;;;22.50;39.90;;;;;;5072558;28;20500;-53
2022/04/20 12:29:15;;;;;;;10.47;10.20;;;22.60;39.80;;;;;;5072480;28;20996;-51
2022/04/20 12:31:44;;;;;;;10.53;10.23;;;22.60;39.80;;;;;;5072468;28;20484;-55
2022/04/20 12:34:15;;;;;;;10.30;10.00;;;22.70;39.70;;;;;;5072620;28;20518;-50
2022/04/20 12:37:03;;;;;;;10.97;10.67;;;22.70;39.60;;;;;;5072273;28;20461;-51
2022/04/20 12:39:34;;;;;;;10.67;10.37;;;22.80;39.60;;;;;;5072522;28;20455;-50
2022/04/20 12:42:02;;;;;;;10.20;9.97;;;22.80;39.40;;;;;;5072400;28;20550;-52
2022/04/20 12:44:48;;;;;;;10.73;10.43;;;22.90;39.40;;;;;;5072150;28;20467;-49
2022/04/20 12:47:39;;;;;;;11.20;10.90;;;22.90;39.40;;;;;;5071976;28;20942;-50
2022/04/20 12:50:18;;;;;;;10.53;10.27;;;22.90;39.20;;;;;;5072166;28;20480;-54
2022/04/20 12:52:59;;;;;;;9.80;9.60;;;23.00;39.10;;;;;;5072108;28;20451;-49
2022/04/20 12:55:43;;;;;;;10.10;9.80;;;23.00;39.00;;;;;;5071899;28;20525;-51
2022/04/20 13:03:44;;;;;;;10.17;9.87;;;23.10;39.10;;;;;;5072069;28;20414;-49
2022/04/20 13:06:13;;;;;;;10.53;10.13;;;23.10;38.90;;;;;;5071718;28;20451;-50
2022/04/20 13:08:41;;;;;;;9.83;9.63;;;23.10;39.00;;;;;;5071739;28;20879;-49
2022/04/20 13:11:11;;;;;;;9.70;9.50;;;23.10;38.90;;;;;;5071905;28;20479;-47
2022/04/20 13:13:39;;;;;;;9.90;9.60;;;23.10;38.90;;;;;;5071857;28;20493;-47
2022/04/20 13:16:09;;;;;;;10.50;10.13;;;23.10;38.80;;;;;;5071538;28;20914;-49